createdAt,value
2023-02-08T00:02:10.122Z,102606.19
2023-02-08T00:07:14.702Z,102612.22
2023-02-08T00:12:19.287Z,102616.50
2023-02-08T00:17:23.895Z,102612.19
2023-02-08T00:22:28.465Z,102626.72
2023-02-08T00:27:35.049Z,102659.34
2023-02-08T00:32:39.627Z,102629.19
2023-02-08T00:37:44.359Z,102628.19
2023-02-08T00:42:48.980Z,102621.19
2023-02-08T00:47:54.576Z,102623.59
2023-02-08T00:53:01.039Z,102622.53
2023-02-08T00:58:05.025Z,102623.19
2023-02-08T01:03:09.604Z,102626.41
2023-02-08T01:08:14.162Z,102626.16
2023-02-08T01:13:18.173Z,102618.91
2023-02-08T01:18:22.733Z,102616.94
2023-02-08T01:23:27.220Z,102643.47
2023-02-08T01:28:31.847Z,102622.41
2023-02-08T01:33:36.057Z,102603.00
2023-02-08T01:38:40.779Z,102604.28
2023-02-08T01:44:04.140Z,102605.59
2023-02-08T01:49:26.773Z,102606.06
2023-02-08T01:54:39.459Z,102619.44
2023-02-08T01:59:55.780Z,102605.97
2023-02-08T02:05:03.952Z,102602.00
2023-02-08T02:10:28.473Z,102593.63
2023-02-08T02:15:33.881Z,102591.44
2023-02-08T02:20:55.178Z,102581.31
2023-02-08T02:26:36.550Z,102585.06
2023-02-08T02:32:04.457Z,102581.09
2023-02-08T02:37:23.986Z,102591.72
2023-02-08T02:43:06.775Z,102584.16
2023-02-08T02:48:17.837Z,102609.69
2023-02-08T02:53:27.302Z,102574.16
2023-02-08T02:58:34.274Z,102594.19
2023-02-08T03:03:38.977Z,102584.97
2023-02-08T03:09:15.894Z,102571.47
2023-02-08T03:15:00.125Z,102563.16
2023-02-08T03:20:07.983Z,102556.56
2023-02-08T03:25:35.184Z,102546.59
2023-02-08T03:31:09.684Z,102540.03
2023-02-08T03:36:52.225Z,102532.66
2023-02-08T03:42:03.159Z,102524.41
2023-02-08T03:47:20.285Z,102523.72
2023-02-08T03:52:28.145Z,102500.53
2023-02-08T03:57:42.442Z,102512.19
2023-02-08T04:02:56.194Z,102474.16
2023-02-08T04:08:01.299Z,102486.38
2023-02-08T04:13:06.547Z,102454.63
2023-02-08T04:18:11.342Z,102451.56
2023-02-08T04:23:16.426Z,102442.34
2023-02-08T04:28:21.543Z,102433.19
2023-02-08T04:33:26.783Z,102438.81
2023-02-08T04:38:32.424Z,102437.63
2023-02-08T04:43:37.603Z,102409.44
2023-02-08T04:48:42.383Z,102403.78
2023-02-08T04:53:47.518Z,102403.34
2023-02-08T04:58:52.643Z,102386.44
2023-02-08T05:03:58.721Z,102381.06
2023-02-08T05:09:04.350Z,102364.16
2023-02-08T05:14:10.635Z,102375.84
2023-02-08T05:19:15.749Z,102349.44
2023-02-08T05:24:20.907Z,102342.28
2023-02-08T05:29:26.283Z,102344.47
2023-02-08T05:34:31.247Z,102331.06
2023-02-08T05:39:36.739Z,102327.19
2023-02-08T05:44:41.884Z,102309.66
2023-02-08T05:49:48.772Z,102334.16
2023-02-08T05:54:55.715Z,102327.06
2023-02-08T06:00:00.988Z,102299.69
2023-02-08T06:05:09.596Z,102296.72
2023-02-08T06:10:15.228Z,102300.50
2023-02-08T06:15:20.916Z,102329.00
2023-02-08T06:20:26.228Z,102303.56
2023-02-08T06:25:31.546Z,102281.22
2023-02-08T06:30:36.678Z,102287.91
2023-02-08T06:35:41.934Z,102283.47
2023-02-08T06:40:49.210Z,102282.06
2023-02-08T06:45:54.482Z,102276.97
2023-02-08T06:50:59.747Z,102272.03
2023-02-08T06:56:04.982Z,102275.75
2023-02-08T07:01:14.891Z,102274.72
2023-02-08T07:06:22.086Z,102280.91
2023-02-08T07:11:28.328Z,102273.88
2023-02-08T07:16:32.984Z,102268.25
2023-02-08T07:21:37.751Z,102262.66
2023-02-08T07:26:42.414Z,102266.72
2023-02-08T07:31:47.155Z,102287.53
2023-02-08T07:36:51.805Z,102264.72
2023-02-08T07:41:57.470Z,102263.56
2023-02-08T07:47:06.367Z,102260.03
2023-02-08T07:52:11.187Z,102258.94
2023-02-08T07:57:22.175Z,102256.41
2023-02-08T08:10:25.809Z,102250.94
2023-02-08T08:15:31.345Z,102249.16
2023-02-08T08:20:39.293Z,102250.84
2023-02-08T08:25:44.234Z,102246.53
2023-02-08T08:30:49.551Z,102237.13
2023-02-08T08:35:54.760Z,102231.22
2023-02-08T08:40:59.794Z,102223.50
2023-02-08T08:46:06.384Z,102236.75
2023-02-08T08:51:11.636Z,102237.19
2023-02-08T08:56:16.699Z,102259.66
2023-02-08T09:01:21.925Z,102229.88
2023-02-08T09:06:27.193Z,102228.91
2023-02-08T09:11:34.403Z,102231.19
2023-02-08T09:16:39.485Z,102220.28
2023-02-08T09:21:44.934Z,102222.56
2023-02-08T09:26:51.375Z,102228.19
2023-02-08T09:31:56.770Z,102230.31
2023-02-08T09:37:01.930Z,102224.63
2023-02-08T09:56:07.000Z,102236.97
2023-02-08T10:01:34.008Z,102228.78
2023-02-08T10:06:39.727Z,102235.66
2023-02-08T10:12:09.655Z,102233.16
2023-02-08T10:17:51.001Z,102236.88
2023-02-08T10:23:12.128Z,102249.28
2023-02-08T10:28:41.420Z,102244.41
2023-02-08T10:34:13.378Z,102234.41
2023-02-08T10:39:35.292Z,102247.78
2023-02-08T10:45:27.134Z,102255.03
2023-02-08T10:50:41.082Z,102246.91
2023-02-08T10:55:48.673Z,102246.34
2023-02-08T11:00:54.484Z,102254.47
2023-02-08T11:05:59.588Z,102242.69
2023-02-08T11:11:12.264Z,102257.03
2023-02-08T11:16:29.160Z,102254.09
2023-02-08T11:21:36.262Z,102240.03
2023-02-08T11:26:42.078Z,102243.03
2023-02-08T11:32:15.268Z,102247.69
2023-02-08T11:37:29.906Z,102235.91
2023-02-08T11:42:48.565Z,102239.50
2023-02-08T11:47:54.642Z,102247.38
2023-02-08T11:53:06.127Z,102245.63
2023-02-08T11:58:26.285Z,102252.75
2023-02-08T12:03:38.959Z,102254.81
2023-02-08T12:09:03.295Z,102242.47
2023-02-08T12:14:32.281Z,102244.72
2023-02-08T12:20:05.591Z,102244.75
2023-02-08T12:25:32.253Z,102243.75
2023-02-08T12:30:47.188Z,102236.59
2023-02-08T12:36:14.980Z,102239.66
2023-02-08T12:41:20.801Z,102245.22
2023-02-08T12:46:48.115Z,102248.88
2023-02-08T12:52:20.828Z,102242.88
2023-02-08T12:57:31.778Z,102246.28
2023-02-08T13:02:47.420Z,102255.72
2023-02-08T13:08:19.050Z,102262.69
2023-02-08T13:13:30.716Z,102266.16
2023-02-08T13:18:39.149Z,102254.97
2023-02-08T13:23:52.878Z,102249.72
2023-02-08T13:29:02.469Z,102263.47
2023-02-08T13:34:20.614Z,102266.81
2023-02-08T13:39:41.348Z,102267.78
2023-02-08T13:44:56.926Z,102267.88
2023-02-08T13:50:08.720Z,102263.63
2023-02-08T13:55:37.272Z,102261.09
2023-02-08T14:01:02.677Z,102257.59
2023-02-08T14:06:30.244Z,102258.38
2023-02-08T14:11:46.597Z,102294.56
2023-02-08T14:17:11.515Z,102265.94
2023-02-08T14:22:16.582Z,102278.13
2023-02-08T14:27:39.945Z,102274.66
2023-02-08T14:32:47.478Z,102278.25
2023-02-08T14:38:24.835Z,102276.66
2023-02-08T14:44:03.817Z,102279.50
2023-02-08T14:49:18.280Z,102278.81
2023-02-08T14:54:51.185Z,102258.06
2023-02-08T15:00:00.904Z,102248.59
2023-02-08T15:05:10.476Z,102247.69
2023-02-08T15:10:18.951Z,102243.31
2023-02-08T15:15:48.735Z,102258.00
2023-02-08T15:21:21.004Z,102252.72
2023-02-08T15:26:26.107Z,102251.00
2023-02-08T15:31:37.039Z,102255.25
2023-02-08T15:36:43.636Z,102256.94
2023-02-08T15:41:52.488Z,102263.63
2023-02-08T15:47:02.082Z,102263.50
2023-02-08T15:52:09.510Z,102271.25
2023-02-08T15:57:35.169Z,102275.53
2023-02-08T16:02:40.277Z,102287.63
2023-02-08T16:07:48.990Z,102276.19
2023-02-08T16:13:00.588Z,102314.06
2023-02-08T16:18:06.944Z,102287.97
2023-02-08T16:23:29.222Z,102267.81
2023-02-08T16:28:35.724Z,102274.66
2023-02-08T16:33:41.059Z,102252.06
2023-02-08T16:39:24.054Z,102269.47
2023-02-08T16:44:35.268Z,102240.09
2023-02-08T16:49:42.378Z,102231.47
2023-02-08T16:54:47.580Z,102215.91
2023-02-08T16:59:53.116Z,102223.75
2023-02-08T17:04:57.728Z,102215.84
2023-02-08T17:10:02.400Z,102228.75
2023-02-08T17:15:07.414Z,102215.75
2023-02-08T17:20:34.402Z,102213.91
2023-02-08T17:25:40.870Z,102212.16
2023-02-08T17:30:46.230Z,102215.63
2023-02-08T17:35:54.191Z,102217.31
2023-02-08T17:41:01.614Z,102242.41
2023-02-08T17:46:21.581Z,102231.22
2023-02-08T17:51:29.194Z,102218.31
2023-02-08T17:56:37.658Z,102224.38
2023-02-08T18:01:42.374Z,102222.66
2023-02-08T18:06:47.811Z,102222.69
2023-02-08T18:11:52.521Z,102221.00
2023-02-08T18:16:59.615Z,102219.22
2023-02-08T18:22:06.716Z,102213.16
2023-02-08T18:27:11.674Z,102207.97
2023-02-08T18:32:17.227Z,102228.81
2023-02-08T18:37:22.973Z,102197.63
2023-02-08T18:42:27.889Z,102203.75
2023-02-08T18:47:32.830Z,102194.28
2023-02-08T18:52:38.521Z,102221.19
2023-02-08T18:57:45.265Z,102189.19
2023-02-08T19:02:50.300Z,102184.91
2023-02-08T19:07:55.083Z,102180.59
2023-02-08T19:13:00.670Z,102173.66
2023-02-08T19:18:06.558Z,102187.50
2023-02-08T19:23:11.646Z,102181.34
2023-02-08T19:28:16.192Z,102189.03
2023-02-08T19:33:21.321Z,102178.63
2023-02-08T19:38:26.543Z,102163.03
2023-02-08T19:43:33.471Z,102158.69
2023-02-08T19:48:38.397Z,102145.75
2023-02-08T19:53:43.209Z,102142.31
2023-02-08T19:58:50.194Z,102142.34
2023-02-08T20:03:56.270Z,102138.03
2023-02-08T20:09:07.060Z,102131.19
2023-02-08T20:14:15.718Z,102117.38
2023-02-08T20:19:20.460Z,102122.59
2023-02-08T20:24:25.880Z,102129.44
2023-02-08T20:29:31.917Z,102109.59
2023-02-08T20:34:38.152Z,102106.03
2023-02-08T20:39:44.355Z,102099.09
2023-02-08T20:44:51.007Z,102088.66
2023-02-08T20:49:56.168Z,102096.41
2023-02-08T20:55:01.396Z,102101.75
2023-02-08T21:00:07.136Z,102084.50
2023-02-08T21:05:11.996Z,102082.88
2023-02-08T21:10:17.707Z,102082.00
2023-02-08T21:15:22.542Z,102069.03
2023-02-08T21:20:27.592Z,102092.44
2023-02-08T21:25:33.297Z,102050.81
2023-02-08T21:30:38.329Z,102043.03
2023-02-08T21:35:43.181Z,102035.25
2023-02-08T21:40:48.153Z,102041.22
2023-02-08T21:45:53.031Z,102040.34
2023-02-08T21:51:20.399Z,102025.75
2023-02-08T21:56:26.017Z,102033.53
2023-02-08T22:01:31.395Z,102032.78
2023-02-08T22:06:36.527Z,102029.34
2023-02-08T22:11:43.898Z,102028.59
2023-02-08T22:16:49.259Z,102020.75
2023-02-08T22:21:54.348Z,102020.75
2023-02-08T22:26:59.467Z,102018.06
2023-02-08T22:32:04.847Z,102043.03
2023-02-08T22:37:11.674Z,102005.72
2023-02-08T22:42:16.872Z,101996.22
2023-02-08T22:47:23.483Z,101993.59
2023-02-08T22:52:29.074Z,102034.28
2023-02-08T22:57:37.612Z,101995.34
2023-02-08T23:02:43.229Z,102000.72
2023-02-08T23:07:48.400Z,101994.91
2023-02-08T23:12:53.249Z,102011.50
2023-02-08T23:17:59.439Z,102018.53
2023-02-08T23:23:04.409Z,102046.41
2023-02-08T23:28:12.223Z,102012.66
2023-02-08T23:33:17.305Z,102011.66
2023-02-08T23:38:22.384Z,102028.75
2023-02-08T23:43:28.302Z,102040.72
2023-02-08T23:48:33.396Z,102060.53
2023-02-08T23:53:39.647Z,102027.38
2023-02-08T23:58:46.597Z,102056.56
